sensor_id;sensor_type;location;lat;lon;timestamp;P1;durP1;ratioP1;P2;durP2;ratioP2
12356;SDS011;6243;51.244;6.774;2023-09-19T00:02:04;5.37;;;2.40;;
12356;SDS011;6243;51.244;6.774;2023-09-19T00:04:32;4.77;;;2.20;;
12356;SDS011;6243;51.244;6.774;2023-09-19T00:06:57;6.80;;;2.20;;
12356;SDS011;6243;51.244;6.774;2023-09-19T00:09:23;4.33;;;2.40;;
12356;SDS011;6243;51.244;6.774;2023-09-19T00:11:49;4.77;;;2.07;;
12356;SDS011;6243;51.244;6.774;2023-09-19T00:14:15;4.50;;;2.30;;
12356;SDS011;6243;51.244;6.774;2023-09-19T00:16:40;6.00;;;2.53;;
12356;SDS011;6243;51.244;6.774;2023-09-19T00:19:06;7.67;;;2.37;;
12356;SDS011;6243;51.244;6.774;2023-09-19T00:21:33;7.57;;;2.63;;
12356;SDS011;6243;51.244;6.774;2023-09-19T00:23:59;9.67;;;2.43;;
12356;SDS011;6243;51.244;6.774;2023-09-19T00:26:24;7.53;;;2.40;;
12356;SDS011;6243;51.244;6.774;2023-09-19T00:28:51;4.83;;;2.27;;
12356;SDS011;6243;51.244;6.774;2023-09-19T00:31:18;5.67;;;2.10;;
12356;SDS011;6243;51.244;6.774;2023-09-19T00:33:43;5.37;;;2.23;;
12356;SDS011;6243;51.244;6.774;2023-09-19T00:36:09;4.83;;;2.10;;
12356;SDS011;6243;51.244;6.774;2023-09-19T00:38:36;4.57;;;1.93;;
12356;SDS011;6243;51.244;6.774;2023-09-19T00:41:02;6.10;;;2.20;;
12356;SDS011;6243;51.244;6.774;2023-09-19T00:43:27;7.40;;;2.27;;
12356;SDS011;6243;51.244;6.774;2023-09-19T00:45:53;4.90;;;2.50;;
12356;SDS011;6243;51.244;6.774;2023-09-19T00:48:20;6.27;;;1.90;;
12356;SDS011;6243;51.244;6.774;2023-09-19T00:50:47;4.97;;;2.10;;
12356;SDS011;6243;51.244;6.774;2023-09-19T00:53:14;6.57;;;1.93;;
12356;SDS011;6243;51.244;6.774;2023-09-19T00:55:44;4.90;;;2.00;;
12356;SDS011;6243;51.244;6.774;2023-09-19T00:58:10;10.27;;;2.37;;
12356;SDS011;6243;51.244;6.774;2023-09-19T01:00:36;6.63;;;2.80;;
12356;SDS011;6243;51.244;6.774;2023-09-19T01:03:02;5.60;;;2.33;;
12356;SDS011;6243;51.244;6.774;2023-09-19T01:05:28;6.33;;;1.93;;
12356;SDS011;6243;51.244;6.774;2023-09-19T01:07:54;4.63;;;2.23;;
12356;SDS011;6243;51.244;6.774;2023-09-19T01:10:20;4.00;;;2.00;;
12356;SDS011;6243;51.244;6.774;2023-09-19T01:12:53;6.33;;;2.30;;
12356;SDS011;6243;51.244;6.774;2023-09-19T01:15:28;7.20;;;2.37;;
12356;SDS011;6243;51.244;6.774;2023-09-19T01:18:03;6.57;;;2.27;;
12356;SDS011;6243;51.244;6.774;2023-09-19T01:20:42;5.17;;;1.87;;
12356;SDS011;6243;51.244;6.774;2023-09-19T01:23:17;7.00;;;2.30;;
12356;SDS011;6243;51.244;6.774;2023-09-19T01:25:55;7.40;;;2.03;;
12356;SDS011;6243;51.244;6.774;2023-09-19T01:29:06;6.47;;;2.20;;
12356;SDS011;6243;51.244;6.774;2023-09-19T01:31:49;6.87;;;2.33;;
12356;SDS011;6243;51.244;6.774;2023-09-19T01:34:18;5.07;;;2.10;;
12356;SDS011;6243;51.244;6.774;2023-09-19T01:36:43;4.70;;;2.07;;
12356;SDS011;6243;51.244;6.774;2023-09-19T01:39:09;7.30;;;2.20;;
12356;SDS011;6243;51.244;6.774;2023-09-19T01:41:41;7.67;;;2.67;;
12356;SDS011;6243;51.244;6.774;2023-09-19T01:44:18;6.50;;;2.47;;
12356;SDS011;6243;51.244;6.774;2023-09-19T01:46:50;4.63;;;1.87;;
12356;SDS011;6243;51.244;6.774;2023-09-19T01:49:22;5.13;;;2.03;;
12356;SDS011;6243;51.244;6.774;2023-09-19T01:51:58;4.67;;;2.40;;
12356;SDS011;6243;51.244;6.774;2023-09-19T01:54:31;6.97;;;2.30;;
12356;SDS011;6243;51.244;6.774;2023-09-19T01:57:03;7.90;;;2.67;;
12356;SDS011;6243;51.244;6.774;2023-09-19T01:59:35;7.17;;;2.10;;
12356;SDS011;6243;51.244;6.774;2023-09-19T02:02:04;8.07;;;2.43;;
12356;SDS011;6243;51.244;6.774;2023-09-19T02:04:32;8.17;;;2.40;;
12356;SDS011;6243;51.244;6.774;2023-09-19T02:06:58;6.07;;;2.10;;
12356;SDS011;6243;51.244;6.774;2023-09-19T02:09:24;5.80;;;2.37;;
12356;SDS011;6243;51.244;6.774;2023-09-19T02:11:50;8.17;;;2.57;;
12356;SDS011;6243;51.244;6.774;2023-09-19T02:14:16;6.87;;;2.40;;
12356;SDS011;6243;51.244;6.774;2023-09-19T02:16:42;9.17;;;2.60;;
12356;SDS011;6243;51.244;6.774;2023-09-19T02:19:09;5.40;;;2.10;;
12356;SDS011;6243;51.244;6.774;2023-09-19T02:21:34;5.50;;;2.30;;
12356;SDS011;6243;51.244;6.774;2023-09-19T02:24:00;8.43;;;2.70;;
12356;SDS011;6243;51.244;6.774;2023-09-19T02:26:26;7.23;;;2.37;;
12356;SDS011;6243;51.244;6.774;2023-09-19T02:28:51;5.67;;;2.03;;
12356;SDS011;6243;51.244;6.774;2023-09-19T02:31:17;6.77;;;2.17;;
12356;SDS011;6243;51.244;6.774;2023-09-19T02:33:42;7.77;;;2.37;;
12356;SDS011;6243;51.244;6.774;2023-09-19T02:36:10;7.90;;;2.33;;
12356;SDS011;6243;51.244;6.774;2023-09-19T02:38:35;5.10;;;2.10;;
12356;SDS011;6243;51.244;6.774;2023-09-19T02:41:01;7.47;;;2.10;;
12356;SDS011;6243;51.244;6.774;2023-09-19T02:43:27;6.53;;;2.30;;
12356;SDS011;6243;51.244;6.774;2023-09-19T02:45:52;5.43;;;2.10;;
12356;SDS011;6243;51.244;6.774;2023-09-19T02:48:18;7.17;;;2.23;;
12356;SDS011;6243;51.244;6.774;2023-09-19T02:50:44;5.00;;;2.07;;
12356;SDS011;6243;51.244;6.774;2023-09-19T02:53:11;7.47;;;2.37;;
12356;SDS011;6243;51.244;6.774;2023-09-19T02:55:37;4.40;;;2.20;;
12356;SDS011;6243;51.244;6.774;2023-09-19T02:58:03;5.70;;;2.10;;
12356;SDS011;6243;51.244;6.774;2023-09-19T03:00:29;5.63;;;2.03;;
12356;SDS011;6243;51.244;6.774;2023-09-19T03:02:54;5.53;;;1.83;;
12356;SDS011;6243;51.244;6.774;2023-09-19T03:05:21;6.83;;;2.20;;
12356;SDS011;6243;51.244;6.774;2023-09-19T03:07:47;7.80;;;2.43;;
12356;SDS011;6243;51.244;6.774;2023-09-19T03:10:14;6.40;;;1.87;;
12356;SDS011;6243;51.244;6.774;2023-09-19T03:12:40;7.77;;;2.20;;
12356;SDS011;6243;51.244;6.774;2023-09-19T03:15:06;5.27;;;2.07;;
12356;SDS011;6243;51.244;6.774;2023-09-19T03:17:32;6.77;;;2.43;;
12356;SDS011;6243;51.244;6.774;2023-09-19T03:19:58;6.53;;;2.53;;
12356;SDS011;6243;51.244;6.774;2023-09-19T03:22:23;6.17;;;2.10;;
12356;SDS011;6243;51.244;6.774;2023-09-19T03:24:49;7.33;;;2.43;;
12356;SDS011;6243;51.244;6.774;2023-09-19T03:27:16;7.63;;;2.40;;
12356;SDS011;6243;51.244;6.774;2023-09-19T03:29:42;8.90;;;2.57;;
12356;SDS011;6243;51.244;6.774;2023-09-19T03:32:07;6.70;;;2.43;;
12356;SDS011;6243;51.244;6.774;2023-09-19T03:34:33;10.77;;;2.80;;
12356;SDS011;6243;51.244;6.774;2023-09-19T03:37:00;10.07;;;2.83;;
12356;SDS011;6243;51.244;6.774;2023-09-19T03:39:26;7.03;;;2.20;;
12356;SDS011;6243;51.244;6.774;2023-09-19T03:41:52;5.73;;;2.50;;
12356;SDS011;6243;51.244;6.774;2023-09-19T03:44:19;8.47;;;2.20;;
12356;SDS011;6243;51.244;6.774;2023-09-19T03:46:44;7.00;;;2.53;;
12356;SDS011;6243;51.244;6.774;2023-09-19T03:49:10;8.20;;;2.53;;
12356;SDS011;6243;51.244;6.774;2023-09-19T03:51:36;6.37;;;2.30;;
12356;SDS011;6243;51.244;6.774;2023-09-19T03:54:01;7.70;;;2.40;;
12356;SDS011;6243;51.244;6.774;2023-09-19T03:56:27;8.57;;;2.70;;
12356;SDS011;6243;51.244;6.774;2023-09-19T03:58:53;6.70;;;2.20;;
12356;SDS011;6243;51.244;6.774;2023-09-19T04:01:20;12.03;;;2.60;;
12356;SDS011;6243;51.244;6.774;2023-09-19T04:03:45;6.67;;;2.23;;
12356;SDS011;6243;51.244;6.774;2023-09-19T04:06:11;7.13;;;2.23;;
12356;SDS011;6243;51.244;6.774;2023-09-19T04:08:37;6.07;;;2.23;;
12356;SDS011;6243;51.244;6.774;2023-09-19T04:11:03;8.10;;;2.30;;
12356;SDS011;6243;51.244;6.774;2023-09-19T04:13:28;6.87;;;2.77;;
12356;SDS011;6243;51.244;6.774;2023-09-19T04:15:54;5.23;;;2.37;;
12356;SDS011;6243;51.244;6.774;2023-09-19T04:18:21;6.03;;;2.43;;
12356;SDS011;6243;51.244;6.774;2023-09-19T04:20:47;6.40;;;2.70;;
12356;SDS011;6243;51.244;6.774;2023-09-19T04:23:14;8.03;;;2.50;;
12356;SDS011;6243;51.244;6.774;2023-09-19T04:25:40;6.80;;;2.60;;
12356;SDS011;6243;51.244;6.774;2023-09-19T04:28:05;7.37;;;2.33;;
12356;SDS011;6243;51.244;6.774;2023-09-19T04:30:31;6.00;;;2.17;;
12356;SDS011;6243;51.244;6.774;2023-09-19T04:32:57;10.93;;;3.03;;
12356;SDS011;6243;51.244;6.774;2023-09-19T04:35:24;7.30;;;2.80;;
12356;SDS011;6243;51.244;6.774;2023-09-19T04:37:50;6.10;;;2.30;;
12356;SDS011;6243;51.244;6.774;2023-09-19T04:40:15;5.33;;;2.63;;
12356;SDS011;6243;51.244;6.774;2023-09-19T04:42:41;6.37;;;2.50;;
12356;SDS011;6243;51.244;6.774;2023-09-19T04:45:07;8.07;;;2.60;;
12356;SDS011;6243;51.244;6.774;2023-09-19T04:47:33;7.20;;;2.60;;
12356;SDS011;6243;51.244;6.774;2023-09-19T04:49:59;5.97;;;2.43;;
12356;SDS011;6243;51.244;6.774;2023-09-19T04:52:26;7.37;;;2.63;;
12356;SDS011;6243;51.244;6.774;2023-09-19T04:54:51;9.87;;;2.47;;
12356;SDS011;6243;51.244;6.774;2023-09-19T04:57:17;10.27;;;3.03;;
12356;SDS011;6243;51.244;6.774;2023-09-19T04:59:43;6.43;;;2.60;;
12356;SDS011;6243;51.244;6.774;2023-09-19T05:02:08;5.53;;;2.30;;
12356;SDS011;6243;51.244;6.774;2023-09-19T05:04:34;7.93;;;2.83;;
12356;SDS011;6243;51.244;6.774;2023-09-19T05:07:00;8.20;;;2.57;;
12356;SDS011;6243;51.244;6.774;2023-09-19T05:09:27;7.20;;;2.40;;
12356;SDS011;6243;51.244;6.774;2023-09-19T05:11:52;7.17;;;2.30;;
12356;SDS011;6243;51.244;6.774;2023-09-19T05:14:18;6.93;;;2.33;;
12356;SDS011;6243;51.244;6.774;2023-09-19T05:16:43;9.20;;;2.70;;
12356;SDS011;6243;51.244;6.774;2023-09-19T05:19:09;7.87;;;2.47;;
12356;SDS011;6243;51.244;6.774;2023-09-19T05:21:35;7.43;;;2.67;;
12356;SDS011;6243;51.244;6.774;2023-09-19T05:24:01;8.10;;;2.90;;
12356;SDS011;6243;51.244;6.774;2023-09-19T05:26:28;9.17;;;2.80;;
12356;SDS011;6243;51.244;6.774;2023-09-19T05:28:54;6.03;;;2.77;;
12356;SDS011;6243;51.244;6.774;2023-09-19T05:31:19;8.77;;;2.73;;
12356;SDS011;6243;51.244;6.774;2023-09-19T05:33:45;8.87;;;2.40;;
12356;SDS011;6243;51.244;6.774;2023-09-19T05:36:11;8.60;;;2.47;;
12356;SDS011;6243;51.244;6.774;2023-09-19T05:38:36;5.70;;;2.40;;
12356;SDS011;6243;51.244;6.774;2023-09-19T05:41:02;6.50;;;2.40;;
12356;SDS011;6243;51.244;6.774;2023-09-19T05:43:29;8.50;;;2.50;;
12356;SDS011;6243;51.244;6.774;2023-09-19T05:45:55;6.03;;;2.20;;
12356;SDS011;6243;51.244;6.774;2023-09-19T05:48:20;8.40;;;2.70;;
12356;SDS011;6243;51.244;6.774;2023-09-19T05:50:46;8.00;;;2.83;;
12356;SDS011;6243;51.244;6.774;2023-09-19T05:53:11;7.87;;;2.30;;
12356;SDS011;6243;51.244;6.774;2023-09-19T05:55:37;6.73;;;2.30;;
12356;SDS011;6243;51.244;6.774;2023-09-19T05:58:03;11.97;;;2.80;;
12356;SDS011;6243;51.244;6.774;2023-09-19T06:00:30;8.80;;;2.80;;
12356;SDS011;6243;51.244;6.774;2023-09-19T06:02:56;8.83;;;2.57;;
12356;SDS011;6243;51.244;6.774;2023-09-19T06:05:23;6.57;;;2.30;;
12356;SDS011;6243;51.244;6.774;2023-09-19T06:07:49;6.17;;;2.37;;
12356;SDS011;6243;51.244;6.774;2023-09-19T06:10:15;8.70;;;2.57;;
12356;SDS011;6243;51.244;6.774;2023-09-19T06:12:42;9.50;;;3.07;;
12356;SDS011;6243;51.244;6.774;2023-09-19T06:15:08;5.90;;;2.30;;
12356;SDS011;6243;51.244;6.774;2023-09-19T06:17:35;9.03;;;2.67;;
12356;SDS011;6243;51.244;6.774;2023-09-19T06:20:01;7.93;;;2.73;;
12356;SDS011;6243;51.244;6.774;2023-09-19T06:22:26;10.10;;;2.27;;
12356;SDS011;6243;51.244;6.774;2023-09-19T06:24:52;5.90;;;2.37;;
12356;SDS011;6243;51.244;6.774;2023-09-19T06:27:18;6.13;;;2.27;;
12356;SDS011;6243;51.244;6.774;2023-09-19T06:29:43;6.03;;;2.63;;
12356;SDS011;6243;51.244;6.774;2023-09-19T06:32:09;5.60;;;2.57;;
12356;SDS011;6243;51.244;6.774;2023-09-19T06:34:36;7.67;;;2.53;;
12356;SDS011;6243;51.244;6.774;2023-09-19T06:37:02;10.00;;;2.40;;
12356;SDS011;6243;51.244;6.774;2023-09-19T06:39:27;8.10;;;2.43;;
12356;SDS011;6243;51.244;6.774;2023-09-19T06:41:53;7.37;;;2.80;;
12356;SDS011;6243;51.244;6.774;2023-09-19T06:44:19;9.03;;;2.50;;
12356;SDS011;6243;51.244;6.774;2023-09-19T06:46:45;6.20;;;2.50;;
12356;SDS011;6243;51.244;6.774;2023-09-19T06:49:10;6.30;;;2.57;;
12356;SDS011;6243;51.244;6.774;2023-09-19T06:51:37;10.47;;;2.70;;
12356;SDS011;6243;51.244;6.774;2023-09-19T06:54:03;8.20;;;2.57;;
12356;SDS011;6243;51.244;6.774;2023-09-19T06:56:29;8.53;;;2.67;;
12356;SDS011;6243;51.244;6.774;2023-09-19T06:58:54;9.07;;;3.03;;
12356;SDS011;6243;51.244;6.774;2023-09-19T07:01:20;8.50;;;2.67;;
12356;SDS011;6243;51.244;6.774;2023-09-19T07:03:46;10.97;;;2.67;;
12356;SDS011;6243;51.244;6.774;2023-09-19T07:06:11;14.17;;;3.17;;
12356;SDS011;6243;51.244;6.774;2023-09-19T07:08:38;9.60;;;2.43;;
12356;SDS011;6243;51.244;6.774;2023-09-19T07:11:04;9.37;;;2.63;;
12356;SDS011;6243;51.244;6.774;2023-09-19T07:13:30;9.50;;;2.90;;
12356;SDS011;6243;51.244;6.774;2023-09-19T07:15:55;10.43;;;2.73;;
12356;SDS011;6243;51.244;6.774;2023-09-19T07:18:23;10.77;;;2.30;;
12356;SDS011;6243;51.244;6.774;2023-09-19T07:20:49;9.33;;;2.40;;
12356;SDS011;6243;51.244;6.774;2023-09-19T07:23:15;10.63;;;3.10;;
12356;SDS011;6243;51.244;6.774;2023-09-19T07:25:42;8.63;;;2.20;;
12356;SDS011;6243;51.244;6.774;2023-09-19T07:28:08;5.17;;;2.40;;
12356;SDS011;6243;51.244;6.774;2023-09-19T07:30:35;5.83;;;2.40;;
12356;SDS011;6243;51.244;6.774;2023-09-19T07:33:01;12.50;;;2.50;;
12356;SDS011;6243;51.244;6.774;2023-09-19T07:35:27;11.13;;;2.50;;
12356;SDS011;6243;51.244;6.774;2023-09-19T07:37:52;8.03;;;2.60;;
12356;SDS011;6243;51.244;6.774;2023-09-19T07:40:18;9.00;;;3.10;;
12356;SDS011;6243;51.244;6.774;2023-09-19T07:42:46;7.93;;;2.20;;
12356;SDS011;6243;51.244;6.774;2023-09-19T07:45:11;9.80;;;2.40;;
12356;SDS011;6243;51.244;6.774;2023-09-19T07:47:37;13.17;;;2.90;;
12356;SDS011;6243;51.244;6.774;2023-09-19T07:50:03;9.43;;;2.83;;
12356;SDS011;6243;51.244;6.774;2023-09-19T07:52:29;9.50;;;2.83;;
12356;SDS011;6243;51.244;6.774;2023-09-19T07:54:55;6.07;;;2.40;;
12356;SDS011;6243;51.244;6.774;2023-09-19T07:57:21;7.33;;;2.40;;
12356;SDS011;6243;51.244;6.774;2023-09-19T07:59:48;5.27;;;2.23;;
12356;SDS011;6243;51.244;6.774;2023-09-19T08:02:13;9.37;;;2.50;;
12356;SDS011;6243;51.244;6.774;2023-09-19T08:04:39;7.10;;;2.27;;
12356;SDS011;6243;51.244;6.774;2023-09-19T08:07:05;6.67;;;2.17;;
12356;SDS011;6243;51.244;6.774;2023-09-19T08:09:30;10.27;;;2.60;;
12356;SDS011;6243;51.244;6.774;2023-09-19T08:11:56;9.70;;;2.60;;
12356;SDS011;6243;51.244;6.774;2023-09-19T08:14:22;8.10;;;2.23;;
12356;SDS011;6243;51.244;6.774;2023-09-19T08:16:49;8.27;;;2.50;;
12356;SDS011;6243;51.244;6.774;2023-09-19T08:19:14;8.90;;;2.30;;
12356;SDS011;6243;51.244;6.774;2023-09-19T08:21:40;8.20;;;2.93;;
12356;SDS011;6243;51.244;6.774;2023-09-19T08:24:06;6.90;;;3.00;;
12356;SDS011;6243;51.244;6.774;2023-09-19T08:26:31;6.83;;;2.60;;
12356;SDS011;6243;51.244;6.774;2023-09-19T08:28:57;4.47;;;2.07;;
12356;SDS011;6243;51.244;6.774;2023-09-19T08:31:22;10.57;;;2.73;;
12356;SDS011;6243;51.244;6.774;2023-09-19T08:33:50;8.63;;;2.53;;
12356;SDS011;6243;51.244;6.774;2023-09-19T08:36:15;6.37;;;2.60;;
12356;SDS011;6243;51.244;6.774;2023-09-19T08:38:41;5.73;;;2.30;;
12356;SDS011;6243;51.244;6.774;2023-09-19T08:41:07;7.83;;;2.30;;
12356;SDS011;6243;51.244;6.774;2023-09-19T08:43:33;6.30;;;2.23;;
12356;SDS011;6243;51.244;6.774;2023-09-19T08:46:09;7.00;;;2.40;;
12356;SDS011;6243;51.244;6.774;2023-09-19T08:48:36;6.40;;;2.47;;
12356;SDS011;6243;51.244;6.774;2023-09-19T08:51:06;8.13;;;2.57;;
12356;SDS011;6243;51.244;6.774;2023-09-19T08:53:35;7.37;;;2.57;;
12356;SDS011;6243;51.244;6.774;2023-09-19T08:56:06;8.27;;;2.73;;
12356;SDS011;6243;51.244;6.774;2023-09-19T08:58:43;7.43;;;2.03;;
12356;SDS011;6243;51.244;6.774;2023-09-19T09:01:11;7.37;;;2.23;;
12356;SDS011;6243;51.244;6.774;2023-09-19T09:03:38;6.40;;;2.50;;
12356;SDS011;6243;51.244;6.774;2023-09-19T09:06:09;6.17;;;2.57;;
12356;SDS011;6243;51.244;6.774;2023-09-19T09:08:35;5.80;;;2.10;;
12356;SDS011;6243;51.244;6.774;2023-09-19T09:11:01;5.57;;;2.20;;
12356;SDS011;6243;51.244;6.774;2023-09-19T09:13:27;7.83;;;3.03;;
12356;SDS011;6243;51.244;6.774;2023-09-19T09:15:54;15.83;;;2.83;;
12356;SDS011;6243;51.244;6.774;2023-09-19T09:18:19;10.33;;;2.57;;
12356;SDS011;6243;51.244;6.774;2023-09-19T09:20:45;9.30;;;2.60;;
12356;SDS011;6243;51.244;6.774;2023-09-19T09:23:12;10.53;;;2.53;;
12356;SDS011;6243;51.244;6.774;2023-09-19T09:25:47;6.23;;;1.83;;
12356;SDS011;6243;51.244;6.774;2023-09-19T09:28:15;9.90;;;2.47;;
12356;SDS011;6243;51.244;6.774;2023-09-19T09:30:44;7.93;;;2.43;;
12356;SDS011;6243;51.244;6.774;2023-09-19T09:33:10;7.50;;;2.50;;
12356;SDS011;6243;51.244;6.774;2023-09-19T09:35:36;9.47;;;2.50;;
12356;SDS011;6243;51.244;6.774;2023-09-19T09:38:03;6.77;;;2.30;;
12356;SDS011;6243;51.244;6.774;2023-09-19T09:40:33;5.13;;;1.93;;
12356;SDS011;6243;51.244;6.774;2023-09-19T09:43:17;6.27;;;2.60;;
12356;SDS011;6243;51.244;6.774;2023-09-19T09:45:51;7.20;;;2.43;;
12356;SDS011;6243;51.244;6.774;2023-09-19T09:48:32;6.63;;;2.47;;
12356;SDS011;6243;51.244;6.774;2023-09-19T09:50:58;7.10;;;2.40;;
12356;SDS011;6243;51.244;6.774;2023-09-19T09:53:25;9.13;;;2.90;;
12356;SDS011;6243;51.244;6.774;2023-09-19T09:56:00;7.33;;;2.90;;
12356;SDS011;6243;51.244;6.774;2023-09-19T09:58:26;8.57;;;2.60;;
12356;SDS011;6243;51.244;6.774;2023-09-19T10:00:52;11.63;;;2.90;;
12356;SDS011;6243;51.244;6.774;2023-09-19T10:03:19;7.43;;;2.27;;
12356;SDS011;6243;51.244;6.774;2023-09-19T10:05:45;6.33;;;2.60;;
12356;SDS011;6243;51.244;6.774;2023-09-19T10:08:11;5.60;;;2.40;;
12356;SDS011;6243;51.244;6.774;2023-09-19T10:10:37;5.33;;;1.90;;
12356;SDS011;6243;51.244;6.774;2023-09-19T10:13:06;7.37;;;2.40;;
12356;SDS011;6243;51.244;6.774;2023-09-19T10:15:33;6.23;;;2.60;;
12356;SDS011;6243;51.244;6.774;2023-09-19T10:17:59;8.20;;;2.33;;
12356;SDS011;6243;51.244;6.774;2023-09-19T10:20:26;6.40;;;2.53;;
12356;SDS011;6243;51.244;6.774;2023-09-19T10:22:53;7.47;;;3.13;;
12356;SDS011;6243;51.244;6.774;2023-09-19T10:25:20;8.67;;;2.50;;
12356;SDS011;6243;51.244;6.774;2023-09-19T10:27:46;5.93;;;2.50;;
12356;SDS011;6243;51.244;6.774;2023-09-19T10:30:13;6.63;;;2.40;;
12356;SDS011;6243;51.244;6.774;2023-09-19T10:32:39;5.70;;;2.23;;
12356;SDS011;6243;51.244;6.774;2023-09-19T10:35:07;8.93;;;2.60;;
12356;SDS011;6243;51.244;6.774;2023-09-19T10:37:33;5.77;;;2.20;;
12356;SDS011;6243;51.244;6.774;2023-09-19T10:40:00;3.93;;;2.03;;
12356;SDS011;6243;51.244;6.774;2023-09-19T10:42:26;6.53;;;2.30;;
12356;SDS011;6243;51.244;6.774;2023-09-19T10:44:52;6.77;;;2.33;;
12356;SDS011;6243;51.244;6.774;2023-09-19T10:47:20;10.90;;;2.60;;
12356;SDS011;6243;51.244;6.774;2023-09-19T10:49:45;5.00;;;2.40;;
12356;SDS011;6243;51.244;6.774;2023-09-19T10:52:11;5.23;;;2.37;;
12356;SDS011;6243;51.244;6.774;2023-09-19T10:54:41;6.70;;;2.10;;
12356;SDS011;6243;51.244;6.774;2023-09-19T10:57:11;9.47;;;2.40;;
12356;SDS011;6243;51.244;6.774;2023-09-19T10:59:39;4.23;;;2.10;;
12356;SDS011;6243;51.244;6.774;2023-09-19T11:02:29;4.73;;;2.27;;
12356;SDS011;6243;51.244;6.774;2023-09-19T11:04:55;7.50;;;2.40;;
12356;SDS011;6243;51.244;6.774;2023-09-19T11:07:50;4.50;;;2.37;;
12356;SDS011;6243;51.244;6.774;2023-09-19T11:13:24;7.03;;;2.30;;
12356;SDS011;6243;51.244;6.774;2023-09-19T11:18:53;3.93;;;1.93;;
12356;SDS011;6243;51.244;6.774;2023-09-19T11:24:30;7.57;;;2.13;;
12356;SDS011;6243;51.244;6.774;2023-09-19T11:27:09;6.07;;;2.37;;
12356;SDS011;6243;51.244;6.774;2023-09-19T11:29:39;5.13;;;2.30;;
12356;SDS011;6243;51.244;6.774;2023-09-19T11:32:05;9.73;;;2.63;;
12356;SDS011;6243;51.244;6.774;2023-09-19T11:34:38;6.33;;;2.50;;
12356;SDS011;6243;51.244;6.774;2023-09-19T11:40:25;4.17;;;2.17;;
12356;SDS011;6243;51.244;6.774;2023-09-19T11:42:51;4.63;;;2.00;;
12356;SDS011;6243;51.244;6.774;2023-09-19T11:48:19;3.20;;;2.10;;
12356;SDS011;6243;51.244;6.774;2023-09-19T11:50:46;5.33;;;2.23;;
12356;SDS011;6243;51.244;6.774;2023-09-19T11:53:14;4.73;;;2.40;;
12356;SDS011;6243;51.244;6.774;2023-09-19T11:55:39;5.63;;;2.23;;
12356;SDS011;6243;51.244;6.774;2023-09-19T11:58:06;7.80;;;2.03;;
12356;SDS011;6243;51.244;6.774;2023-09-19T12:00:33;6.37;;;2.23;;
12356;SDS011;6243;51.244;6.774;2023-09-19T12:03:01;5.80;;;2.53;;
12356;SDS011;6243;51.244;6.774;2023-09-19T12:05:33;5.03;;;2.00;;
12356;SDS011;6243;51.244;6.774;2023-09-19T12:08:00;8.50;;;2.30;;
12356;SDS011;6243;51.244;6.774;2023-09-19T12:10:26;8.53;;;2.40;;
12356;SDS011;6243;51.244;6.774;2023-09-19T12:12:52;5.67;;;2.20;;
12356;SDS011;6243;51.244;6.774;2023-09-19T12:15:22;5.73;;;2.20;;
12356;SDS011;6243;51.244;6.774;2023-09-19T12:17:48;5.07;;;2.20;;
12356;SDS011;6243;51.244;6.774;2023-09-19T12:20:15;6.73;;;2.50;;
12356;SDS011;6243;51.244;6.774;2023-09-19T12:22:41;6.07;;;2.20;;
12356;SDS011;6243;51.244;6.774;2023-09-19T12:25:08;5.00;;;2.10;;
12356;SDS011;6243;51.244;6.774;2023-09-19T12:27:41;5.13;;;2.20;;
12356;SDS011;6243;51.244;6.774;2023-09-19T12:30:07;8.07;;;2.23;;
12356;SDS011;6243;51.244;6.774;2023-09-19T12:32:34;8.23;;;2.07;;
12356;SDS011;6243;51.244;6.774;2023-09-19T12:35:00;6.00;;;2.30;;
12356;SDS011;6243;51.244;6.774;2023-09-19T12:37:25;4.07;;;2.00;;
12356;SDS011;6243;51.244;6.774;2023-09-19T12:39:51;4.23;;;1.93;;
12356;SDS011;6243;51.244;6.774;2023-09-19T12:42:19;5.40;;;2.03;;
12356;SDS011;6243;51.244;6.774;2023-09-19T12:44:47;4.70;;;1.80;;
12356;SDS011;6243;51.244;6.774;2023-09-19T12:47:15;7.57;;;2.50;;
12356;SDS011;6243;51.244;6.774;2023-09-19T12:52:35;6.50;;;2.40;;
12356;SDS011;6243;51.244;6.774;2023-09-19T12:55:01;5.77;;;2.00;;
12356;SDS011;6243;51.244;6.774;2023-09-19T12:57:29;3.40;;;1.70;;
12356;SDS011;6243;51.244;6.774;2023-09-19T12:59:54;5.33;;;2.00;;
12356;SDS011;6243;51.244;6.774;2023-09-19T13:02:20;2.70;;;1.57;;
12356;SDS011;6243;51.244;6.774;2023-09-19T13:04:51;4.80;;;1.90;;
12356;SDS011;6243;51.244;6.774;2023-09-19T13:10:07;4.00;;;2.07;;
12356;SDS011;6243;51.244;6.774;2023-09-19T13:12:37;4.33;;;1.83;;
12356;SDS011;6243;51.244;6.774;2023-09-19T13:15:07;3.60;;;1.67;;
12356;SDS011;6243;51.244;6.774;2023-09-19T13:17:42;3.03;;;1.47;;
12356;SDS011;6243;51.244;6.774;2023-09-19T13:20:19;4.23;;;1.67;;
12356;SDS011;6243;51.244;6.774;2023-09-19T13:22:46;5.23;;;1.33;;
12356;SDS011;6243;51.244;6.774;2023-09-19T13:25:13;5.83;;;1.40;;
12356;SDS011;6243;51.244;6.774;2023-09-19T13:27:41;9.87;;;1.70;;
12356;SDS011;6243;51.244;6.774;2023-09-19T13:30:08;6.43;;;1.60;;
12356;SDS011;6243;51.244;6.774;2023-09-19T13:32:34;5.13;;;1.73;;
12356;SDS011;6243;51.244;6.774;2023-09-19T13:35:00;4.00;;;1.60;;
12356;SDS011;6243;51.244;6.774;2023-09-19T13:37:26;5.20;;;2.17;;
12356;SDS011;6243;51.244;6.774;2023-09-19T13:39:51;5.10;;;1.90;;
12356;SDS011;6243;51.244;6.774;2023-09-19T13:42:17;4.70;;;1.60;;
12356;SDS011;6243;51.244;6.774;2023-09-19T13:44:44;3.97;;;1.40;;
12356;SDS011;6243;51.244;6.774;2023-09-19T13:47:10;3.27;;;1.50;;
12356;SDS011;6243;51.244;6.774;2023-09-19T13:49:36;4.50;;;1.40;;
12356;SDS011;6243;51.244;6.774;2023-09-19T13:52:01;3.00;;;1.43;;
12356;SDS011;6243;51.244;6.774;2023-09-19T13:54:27;5.77;;;1.70;;
12356;SDS011;6243;51.244;6.774;2023-09-19T13:56:53;2.67;;;1.20;;
12356;SDS011;6243;51.244;6.774;2023-09-19T13:59:19;4.47;;;1.60;;
12356;SDS011;6243;51.244;6.774;2023-09-19T14:01:46;6.50;;;1.80;;
12356;SDS011;6243;51.244;6.774;2023-09-19T14:04:12;5.00;;;1.33;;
12356;SDS011;6243;51.244;6.774;2023-09-19T14:06:38;6.53;;;1.50;;
12356;SDS011;6243;51.244;6.774;2023-09-19T14:09:07;3.97;;;1.20;;
12356;SDS011;6243;51.244;6.774;2023-09-19T14:11:32;6.63;;;1.47;;
12356;SDS011;6243;51.244;6.774;2023-09-19T14:13:58;5.73;;;1.70;;
12356;SDS011;6243;51.244;6.774;2023-09-19T14:16:24;6.97;;;1.40;;
12356;SDS011;6243;51.244;6.774;2023-09-19T14:18:51;3.27;;;1.33;;
12356;SDS011;6243;51.244;6.774;2023-09-19T14:21:17;5.87;;;1.80;;
12356;SDS011;6243;51.244;6.774;2023-09-19T14:23:42;6.03;;;1.43;;
12356;SDS011;6243;51.244;6.774;2023-09-19T14:26:08;3.77;;;1.60;;
12356;SDS011;6243;51.244;6.774;2023-09-19T14:28:34;7.17;;;1.70;;
12356;SDS011;6243;51.244;6.774;2023-09-19T14:31:03;6.00;;;1.40;;
12356;SDS011;6243;51.244;6.774;2023-09-19T14:33:29;6.37;;;1.70;;
12356;SDS011;6243;51.244;6.774;2023-09-19T14:35:56;4.13;;;1.27;;
12356;SDS011;6243;51.244;6.774;2023-09-19T14:38:22;5.30;;;1.13;;
12356;SDS011;6243;51.244;6.774;2023-09-19T14:40:48;4.70;;;1.60;;
12356;SDS011;6243;51.244;6.774;2023-09-19T14:43:13;6.57;;;1.60;;
12356;SDS011;6243;51.244;6.774;2023-09-19T14:45:39;4.20;;;1.17;;
12356;SDS011;6243;51.244;6.774;2023-09-19T14:48:05;4.60;;;1.30;;
12356;SDS011;6243;51.244;6.774;2023-09-19T14:50:31;5.13;;;1.40;;
12356;SDS011;6243;51.244;6.774;2023-09-19T14:52:58;2.33;;;1.30;;
12356;SDS011;6243;51.244;6.774;2023-09-19T14:55:23;3.93;;;1.50;;
12356;SDS011;6243;51.244;6.774;2023-09-19T14:57:49;3.43;;;1.50;;
12356;SDS011;6243;51.244;6.774;2023-09-19T15:00:15;5.00;;;1.30;;
12356;SDS011;6243;51.244;6.774;2023-09-19T15:02:41;4.83;;;1.30;;
12356;SDS011;6243;51.244;6.774;2023-09-19T15:05:07;1.63;;;1.00;;
12356;SDS011;6243;51.244;6.774;2023-09-19T15:07:33;5.67;;;1.23;;
12356;SDS011;6243;51.244;6.774;2023-09-19T15:10:00;3.47;;;1.33;;
12356;SDS011;6243;51.244;6.774;2023-09-19T15:12:26;5.10;;;1.50;;
12356;SDS011;6243;51.244;6.774;2023-09-19T15:14:51;3.00;;;1.27;;
12356;SDS011;6243;51.244;6.774;2023-09-19T15:17:17;5.30;;;1.60;;
12356;SDS011;6243;51.244;6.774;2023-09-19T15:19:43;4.00;;;1.50;;
12356;SDS011;6243;51.244;6.774;2023-09-19T15:22:08;5.37;;;1.53;;